createdAt,value
2022-10-31T00:00:00.203Z,10.9
2022-10-31T00:05:00.211Z,10.8
2022-10-31T00:10:00.210Z,10.8
2022-10-31T00:15:00.208Z,10.8
2022-10-31T00:20:00.216Z,10.9
2022-10-31T00:25:00.196Z,10.9
2022-10-31T00:30:00.211Z,11.0
2022-10-31T00:35:01.100Z,10.8
2022-10-31T00:40:00.188Z,10.9
2022-10-31T00:45:00.208Z,10.9
2022-10-31T00:50:00.191Z,10.8
2022-10-31T00:55:00.195Z,10.9
2022-10-31T01:00:00.281Z,10.9
2022-10-31T01:05:00.242Z,10.8
2022-10-31T01:10:00.205Z,10.7
2022-10-31T01:15:00.184Z,10.6
2022-10-31T01:20:00.218Z,10.7
2022-10-31T01:25:00.181Z,10.7
2022-10-31T01:30:00.246Z,10.7
2022-10-31T01:35:00.211Z,10.7
2022-10-31T01:40:00.181Z,10.7
2022-10-31T01:45:00.230Z,10.6
2022-10-31T01:50:00.216Z,10.4
2022-10-31T01:55:00.191Z,10.5
2022-10-31T02:00:00.230Z,10.3
2022-10-31T02:05:00.192Z,10.0
2022-10-31T02:10:00.212Z,10.0
2022-10-31T02:15:00.186Z,9.8
2022-10-31T02:20:00.195Z,9.8
2022-10-31T02:25:00.182Z,9.7
2022-10-31T02:30:00.221Z,9.8
2022-10-31T02:35:00.194Z,9.9
2022-10-31T02:40:00.192Z,9.8
2022-10-31T02:45:00.197Z,9.7
2022-10-31T02:50:00.193Z,9.6
2022-10-31T02:55:00.186Z,9.6
2022-10-31T03:00:00.196Z,9.6
2022-10-31T03:05:00.190Z,9.6
2022-10-31T03:10:00.202Z,9.5
2022-10-31T03:15:00.262Z,9.4
2022-10-31T03:20:00.230Z,9.1
2022-10-31T03:25:00.213Z,9.0
2022-10-31T03:30:00.232Z,9.1
2022-10-31T03:35:00.190Z,8.8
2022-10-31T03:40:00.203Z,8.6
2022-10-31T03:45:00.208Z,8.6
2022-10-31T03:50:00.172Z,8.6
2022-10-31T03:55:00.205Z,8.3
2022-10-31T04:00:00.232Z,8.3
2022-10-31T04:05:00.184Z,7.9
2022-10-31T04:10:00.234Z,7.8
2022-10-31T04:15:00.201Z,8.2
2022-10-31T04:20:00.199Z,8.3
2022-10-31T04:25:00.198Z,8.4
2022-10-31T04:30:00.207Z,8.3
2022-10-31T04:35:00.239Z,8.3
2022-10-31T04:40:00.209Z,8.0
2022-10-31T04:45:00.215Z,8.2
2022-10-31T04:50:00.195Z,8.0
2022-10-31T04:55:00.215Z,8.0
2022-10-31T05:00:00.247Z,7.8
2022-10-31T05:05:00.194Z,7.5
2022-10-31T05:10:00.225Z,7.8
2022-10-31T05:15:00.203Z,7.7
2022-10-31T05:20:00.206Z,7.9
2022-10-31T05:25:00.207Z,7.7
2022-10-31T05:35:00.199Z,8.2
2022-10-31T05:40:05.302Z,8.1
2022-10-31T05:45:00.198Z,8.2
2022-10-31T05:50:00.190Z,8.1
2022-10-31T05:55:00.189Z,8.0
2022-10-31T06:00:00.281Z,8.1
2022-10-31T06:05:00.290Z,8.3
2022-10-31T06:10:00.228Z,8.3
2022-10-31T06:15:00.223Z,8.2
2022-10-31T06:20:00.258Z,8.0
2022-10-31T06:25:00.195Z,8.0
2022-10-31T06:30:00.208Z,8.0
2022-10-31T06:35:00.195Z,7.8
2022-10-31T06:40:00.205Z,7.7
2022-10-31T06:45:00.213Z,7.8
2022-10-31T06:50:00.209Z,7.8
2022-10-31T06:55:00.206Z,7.7
2022-10-31T07:00:00.260Z,7.8
2022-10-31T07:05:00.204Z,8.0
2022-10-31T07:10:00.391Z,8.1
2022-10-31T07:15:00.237Z,7.9
2022-10-31T07:20:00.215Z,8.1
2022-10-31T07:25:00.212Z,8.8
2022-10-31T07:30:00.210Z,9.1
2022-10-31T07:35:00.206Z,9.0
2022-10-31T07:40:00.207Z,9.3
2022-10-31T07:45:00.230Z,9.3
2022-10-31T07:50:00.194Z,9.0
2022-10-31T07:55:00.211Z,9.3
2022-10-31T08:00:00.247Z,9.4
2022-10-31T08:05:01.432Z,9.8
2022-10-31T08:10:00.305Z,9.9
2022-10-31T08:15:00.205Z,10.1
2022-10-31T08:20:00.214Z,10.1
2022-10-31T08:25:00.203Z,10.2
2022-10-31T08:30:00.218Z,10.3
2022-10-31T08:35:00.228Z,10.3
2022-10-31T08:40:00.209Z,10.3
2022-10-31T08:45:00.237Z,10.3
2022-10-31T08:50:00.211Z,10.7
2022-10-31T08:55:00.216Z,10.7
2022-10-31T09:00:00.236Z,10.8
2022-10-31T09:05:00.231Z,10.9
2022-10-31T09:10:00.225Z,11.0
2022-10-31T09:15:00.199Z,11.0
2022-10-31T09:20:00.208Z,11.0
2022-10-31T09:25:00.248Z,11.0
2022-10-31T09:30:00.222Z,11.1
2022-10-31T09:35:00.303Z,11.1
2022-10-31T09:40:00.226Z,11.2
2022-10-31T09:45:00.207Z,11.4
2022-10-31T09:50:00.408Z,11.5
2022-10-31T09:55:00.239Z,11.4
2022-10-31T10:00:00.222Z,11.4
2022-10-31T10:05:00.229Z,11.6
2022-10-31T10:10:00.199Z,11.9
2022-10-31T10:15:00.206Z,12.0
2022-10-31T10:20:00.219Z,12.1
2022-10-31T10:25:00.246Z,12.0
2022-10-31T10:30:00.253Z,12.2
2022-10-31T10:35:00.221Z,12.3
2022-10-31T10:40:00.232Z,12.5
2022-10-31T10:45:00.275Z,12.6
2022-10-31T10:50:01.996Z,12.6
2022-10-31T10:55:00.235Z,12.5
2022-10-31T11:00:00.209Z,12.5
2022-10-31T11:05:00.219Z,12.6
2022-10-31T11:10:00.237Z,12.6
2022-10-31T11:15:00.251Z,12.6
2022-10-31T11:20:00.216Z,12.7
2022-10-31T11:25:00.209Z,12.7
2022-10-31T11:30:00.960Z,12.6
2022-10-31T11:35:00.261Z,12.8
2022-10-31T11:40:00.225Z,12.7
2022-10-31T11:45:00.276Z,12.8
2022-10-31T11:50:00.209Z,12.9
2022-10-31T11:55:00.231Z,12.8
2022-10-31T12:00:00.221Z,12.9
2022-10-31T12:05:00.220Z,13.2
2022-10-31T12:10:00.210Z,13.0
2022-10-31T12:15:00.208Z,12.9
2022-10-31T12:20:00.211Z,12.9
2022-10-31T12:25:00.212Z,12.9
2022-10-31T12:30:00.204Z,13.0
2022-10-31T12:40:00.294Z,12.9
2022-10-31T12:45:00.239Z,13.0
2022-10-31T12:50:00.173Z,13.2
2022-10-31T12:55:00.209Z,13.0
2022-10-31T13:00:00.249Z,13.1
2022-10-31T13:05:00.206Z,13.1
2022-10-31T13:10:00.205Z,12.9
2022-10-31T13:15:00.213Z,13.1
2022-10-31T13:20:00.218Z,13.2
2022-10-31T13:25:00.204Z,12.9
2022-10-31T13:30:00.266Z,12.9
2022-10-31T13:35:00.195Z,13.0
2022-10-31T13:40:00.205Z,12.8
2022-10-31T13:45:00.217Z,12.9
2022-10-31T13:50:00.209Z,12.9
2022-10-31T13:55:00.220Z,12.8
2022-10-31T14:00:00.233Z,12.8
2022-10-31T14:05:00.217Z,13.0
2022-10-31T14:10:00.219Z,13.0
2022-10-31T14:15:00.201Z,13.0
2022-10-31T14:20:00.214Z,13.0
2022-10-31T14:25:00.197Z,13.0
2022-10-31T14:30:00.247Z,13.1
2022-10-31T14:35:00.214Z,13.1
2022-10-31T14:40:00.222Z,13.2
2022-10-31T14:45:00.231Z,13.0
2022-10-31T14:50:00.190Z,13.1
2022-10-31T14:55:00.228Z,13.3
2022-10-31T15:00:03.635Z,13.2
2022-10-31T15:05:00.194Z,13.2
2022-10-31T15:10:00.209Z,13.1
2022-10-31T15:15:00.219Z,13.1
2022-10-31T15:20:00.196Z,13.0
2022-10-31T15:25:00.199Z,13.1
2022-10-31T15:30:00.213Z,13.1
2022-10-31T15:35:00.206Z,13.0
2022-10-31T15:40:00.243Z,12.9
2022-10-31T15:45:00.205Z,12.9
2022-10-31T15:50:00.259Z,13.1
2022-10-31T15:55:00.238Z,13.0
2022-10-31T16:00:00.284Z,13.0
2022-10-31T16:05:00.236Z,12.9
2022-10-31T16:10:00.368Z,12.9
2022-10-31T16:15:00.186Z,12.7
2022-10-31T16:20:00.214Z,12.9
2022-10-31T16:25:00.188Z,12.9
2022-10-31T16:30:00.226Z,12.8
2022-10-31T16:35:00.188Z,12.8
2022-10-31T16:40:00.317Z,12.7
2022-10-31T16:45:00.193Z,12.8
2022-10-31T16:50:00.317Z,12.7
2022-10-31T16:55:00.208Z,12.7
2022-10-31T17:00:00.383Z,12.7
2022-10-31T17:05:00.191Z,12.8
2022-10-31T17:10:00.353Z,12.7
2022-10-31T17:15:00.222Z,12.8
2022-10-31T17:20:00.219Z,12.6
2022-10-31T17:25:00.298Z,12.7
2022-10-31T17:30:00.224Z,12.5
2022-10-31T17:35:00.202Z,12.6
2022-10-31T17:40:00.225Z,12.6
2022-10-31T17:45:00.198Z,12.5
2022-10-31T17:50:00.226Z,12.4
2022-10-31T17:55:00.228Z,12.3
2022-10-31T18:00:00.218Z,12.3
2022-10-31T18:05:00.201Z,12.2
2022-10-31T18:10:00.204Z,12.0
2022-10-31T18:15:00.202Z,12.1
2022-10-31T18:20:00.216Z,11.9
2022-10-31T18:25:02.212Z,11.7
2022-10-31T18:30:00.218Z,11.7
2022-10-31T18:35:00.202Z,11.6
2022-10-31T18:40:00.208Z,11.6
2022-10-31T18:45:06.820Z,11.3
2022-10-31T18:50:00.233Z,11.2
2022-10-31T18:55:00.247Z,11.2
2022-10-31T19:00:00.247Z,11.2
2022-10-31T19:05:00.223Z,11.6
2022-10-31T19:10:00.222Z,11.4
2022-10-31T19:15:00.239Z,11.6
2022-10-31T19:20:00.225Z,11.8
2022-10-31T19:25:00.235Z,12.0
2022-10-31T19:30:00.222Z,12.0
2022-10-31T19:35:00.216Z,12.0
2022-10-31T19:40:00.223Z,12.0
2022-10-31T19:45:00.222Z,11.9
2022-10-31T19:50:00.236Z,11.9
2022-10-31T19:55:00.206Z,11.9
2022-10-31T20:00:00.254Z,11.8
2022-10-31T20:05:00.202Z,11.9
2022-10-31T20:10:00.220Z,11.8
2022-10-31T20:15:00.206Z,11.9
2022-10-31T20:20:00.210Z,11.8
2022-10-31T20:25:00.197Z,11.7
2022-10-31T20:30:00.214Z,11.7
2022-10-31T20:35:00.249Z,11.7
2022-10-31T20:40:00.201Z,11.5
2022-10-31T20:45:00.193Z,11.5
2022-10-31T20:50:00.216Z,11.5
2022-10-31T20:55:00.220Z,11.5
2022-10-31T21:00:00.292Z,11.3
2022-10-31T21:05:00.178Z,11.4
2022-10-31T21:10:00.190Z,11.4
2022-10-31T21:15:00.214Z,11.2
2022-10-31T21:20:00.203Z,11.4
2022-10-31T21:25:00.219Z,11.3
2022-10-31T21:30:00.218Z,11.2
2022-10-31T21:35:00.206Z,11.1
2022-10-31T21:40:00.225Z,11.1
2022-10-31T21:45:00.210Z,11.1
2022-10-31T21:50:00.193Z,11.1
2022-10-31T21:55:00.191Z,11.1
2022-10-31T22:00:00.213Z,10.9
2022-10-31T22:05:00.200Z,10.9
2022-10-31T22:10:00.187Z,10.9
2022-10-31T22:15:00.217Z,10.9
2022-10-31T22:20:00.186Z,10.9
2022-10-31T22:25:00.199Z,10.9
2022-10-31T22:30:00.188Z,10.9
2022-10-31T22:35:00.217Z,10.7
2022-10-31T22:40:00.203Z,10.8
2022-10-31T22:45:00.226Z,10.8
2022-10-31T22:50:00.220Z,10.6
2022-10-31T22:55:00.185Z,10.5
2022-10-31T23:00:00.264Z,10.5
2022-10-31T23:05:00.197Z,10.6
2022-10-31T23:10:00.185Z,10.6
2022-10-31T23:15:00.208Z,10.6
2022-10-31T23:20:00.201Z,10.6
2022-10-31T23:25:00.221Z,10.4
2022-10-31T23:30:00.211Z,10.5
2022-10-31T23:35:00.196Z,10.5
2022-10-31T23:40:00.199Z,10.5
2022-10-31T23:45:00.194Z,10.6
2022-10-31T23:50:00.207Z,10.7
2022-10-31T23:55:00.205Z,10.9
